MST,Max TemperatureF,Mean TemperatureF,Min TemperatureF,Max Dew PointF,MeanDew PointF,Min DewpointF,Max Humidity, Mean Humidity, Min Humidity, Max Sea Level PressureIn, Mean Sea Level PressureIn, Min Sea Level PressureIn, Max VisibilityMiles, Mean VisibilityMiles, Min VisibilityMiles, Max Wind SpeedMPH, Mean Wind SpeedMPH, Max Gust SpeedMPH,PrecipitationIn, CloudCover, Events, WindDirDegrees
2012-12-1,59,39,19,26,20,13,85,52,23,30.28,30.16,30.03,10,10,10,16,4,24,0.00,0,,183
2012-12-2,57,36,16,24,17,10,77,47,20,30.32,30.13,29.94,10,10,9,25,5,31,0.00,0,,233
2012-12-3,55,40,23,34,26,17,78,56,35,30.28,30.07,29.91,10,10,10,17,6,23,0.00,2,,241
2012-12-4,55,36,18,28,19,12,88,57,25,30.57,30.42,30.30,10,10,10,9,2,,0.00,0,,56
2012-12-5,64,42,21,21,14,6,68,41,14,30.46,30.21,30.02,10,10,10,16,2,,0.00,0,,255
2012-12-6,57,38,19,28,18,7,66,47,29,30.14,29.97,29.86,10,10,10,14,3,21,0.00,1,,191
2012-12-7,55,36,18,28,19,12,81,58,26,30.11,29.99,29.88,10,10,10,15,3,20,0.00,1,,280
2012-12-8,52,34,16,25,15,6,84,52,22,30.16,29.99,29.83,10,10,10,18,4,25,0.00,0,,217
2012-12-9,39,22,5,23,16,-1,81,65,36,30.41,30.07,29.82,10,8,1,20,8,26,0.00,3,Snow,353
2012-12-10,39,20,0,10,1,-6,79,50,24,30.58,30.39,30.04,10,10,10,14,3,,0.00,0,,247
2012-12-11,42,22,1,13,4,-6,72,51,25,30.41,30.29,30.16,10,10,10,9,3,,0.00,0,,348
2012-12-12,51,28,5,10,4,-3,76,44,16,30.40,30.21,30.07,10,10,10,23,3,29,0.00,0,,213
2012-12-13,55,32,10,18,10,0,64,44,20,30.30,30.07,29.76,10,10,10,20,6,25,0.00,1,,158
2012-12-14,39,34,28,34,29,21,96,83,61,30.05,29.77,29.58,10,7,0,28,14,43,0.12,8,Fog-Rain-Snow,215
2012-12-15,36,30,21,31,27,17,100,87,74,30.01,29.90,29.82,10,5,0,20,9,33,0.15,8,Fog-Snow,229
2012-12-16,28,20,10,22,17,9,93,84,72,30.34,30.12,29.93,10,10,10,21,4,,0.00,5,,233
2012-12-17,34,24,14,29,23,10,93,84,72,30.34,30.16,30.00,10,10,6,15,6,,0.00,7,Snow,231
2012-12-18,44,35,26,36,29,24,93,76,55,30.02,29.84,29.58,10,10,5,20,8,30,0.05,5,Rain,212
2012-12-19,39,26,12,36,20,5,87,71,47,30.53,29.84,29.46,10,6,0,28,17,37,0.06,5,Fog-Rain-Snow,255
2012-12-20,34,20,6,14,7,-1,77,61,33,30.78,30.66,30.56,10,10,10,10,3,,0.00,0,,55
2012-12-21,46,27,8,18,11,2,81,62,27,30.63,30.47,30.28,10,10,10,7,1,,0.00,0,,12
2012-12-22,52,35,18,27,20,12,81,64,32,30.41,30.26,30.11,10,10,10,10,2,,0.00,0,,234
2012-12-23,50,34,19,27,19,14,85,59,24,30.29,30.14,29.98,10,10,10,9,3,,0.00,0,,179
2012-12-24,45,36,26,34,25,14,87,69,43,30.01,29.82,29.71,10,7,0,31,10,39,0.03,5,Fog-Rain-Snow,243
2012-12-25,35,26,16,21,15,7,81,63,45,30.29,30.09,29.80,10,10,10,12,6,,0.00,2,,261
2012-12-26,46,29,12,27,20,6,86,70,26,30.17,29.91,29.78,10,7,1,23,7,31,0.01,5,Snow,244
2012-12-27,34,28,21,22,19,15,81,72,48,30.01,29.86,29.76,10,9,2,17,8,,0.00,6,Snow,234
2012-12-28,34,23,10,19,13,4,86,66,40,30.43,30.18,30.01,10,9,2,12,4,,0.00,3,Snow,292
2012-12-29,37,20,3,14,8,-4,74,60,36,30.56,30.35,30.19,10,10,10,10,3,,0.00,0,,63
2012-12-30,50,33,16,28,20,9,87,65,27,30.15,29.93,29.76,10,7,1,17,3,23,0.03,4,Snow,262
2012-12-31,30,26,21,27,21,14,86,74,61,30.21,29.92,29.71,10,5,1,20,7,25,0.02,8,Snow,226